createdAt,value
2018-08-03T00:00:16.075Z,45.92
2018-08-03T00:00:56.644Z,46.7
2018-08-03T00:01:37.207Z,46.7
2018-08-03T00:02:17.797Z,47.28
2018-08-03T00:02:58.374Z,47.19
2018-08-03T00:03:38.940Z,46.99
2018-08-03T00:04:19.513Z,46.99
2018-08-03T00:05:00.088Z,47.28
2018-08-03T00:05:40.668Z,46.89
2018-08-03T00:06:21.273Z,47.19
2018-08-03T00:07:01.847Z,47.28
2018-08-03T00:07:42.431Z,47.47
2018-08-03T00:08:23.006Z,46.89
2018-08-03T00:09:03.577Z,46.51
2018-08-03T00:09:44.183Z,46.89
2018-08-03T00:10:24.759Z,46.87
2018-08-03T00:11:05.336Z,46.89
2018-08-03T00:11:45.908Z,46.41
2018-08-03T00:12:26.474Z,47.09
2018-08-03T00:13:07.049Z,47.06
2018-08-03T00:13:47.623Z,47.16
2018-08-03T00:14:28.192Z,46.6
2018-08-03T00:15:08.763Z,46.77
2018-08-03T00:15:49.360Z,46.87
2018-08-03T00:16:29.902Z,47.36
2018-08-03T00:17:10.472Z,47.55
2018-08-03T00:17:51.039Z,47.64
2018-08-03T00:18:31.612Z,47.36
2018-08-03T00:19:12.184Z,47.45
2018-08-03T00:19:52.751Z,47.28
2018-08-03T00:20:33.317Z,47.36
2018-08-03T00:21:13.885Z,46.87
2018-08-03T00:21:54.455Z,46.97
2018-08-03T00:22:35.033Z,47.06
2018-08-03T00:23:15.608Z,46.58
2018-08-03T00:23:56.209Z,46.39
2018-08-03T00:24:36.782Z,46.58
2018-08-03T00:25:17.361Z,47.16
2018-08-03T00:25:57.957Z,47.36
2018-08-03T00:26:38.524Z,47.06
2018-08-03T00:27:19.096Z,47.16
2018-08-03T00:27:59.655Z,47.16
2018-08-03T00:28:40.219Z,48.03
2018-08-03T00:29:20.797Z,47.45
2018-08-03T00:30:01.375Z,48.03
2018-08-03T00:30:41.943Z,47.94
2018-08-03T00:31:22.506Z,47.94
2018-08-03T00:32:03.093Z,48.22
2018-08-03T00:32:43.678Z,48.03
2018-08-03T00:33:24.226Z,47.84
2018-08-03T00:34:04.786Z,47.94
2018-08-03T00:34:45.361Z,47.45
2018-08-03T00:35:25.933Z,47.16
2018-08-03T00:36:06.498Z,47.36
2018-08-03T00:36:47.059Z,47.26
2018-08-03T00:37:27.655Z,46.67
2018-08-03T00:38:08.241Z,47.36
2018-08-03T00:38:48.811Z,47.16
2018-08-03T00:39:29.402Z,47.36
2018-08-03T00:40:09.983Z,47.45
2018-08-03T00:40:50.598Z,47.36
2018-08-03T00:41:31.195Z,47.36
2018-08-03T00:42:11.796Z,47.26
2018-08-03T00:42:52.352Z,47.16
2018-08-03T00:43:32.933Z,47.26
2018-08-03T00:44:13.542Z,47.55
2018-08-03T00:44:54.106Z,47.26
2018-08-03T00:45:34.662Z,48.13
2018-08-03T00:46:15.243Z,48.13
2018-08-03T00:46:55.815Z,47.94
2018-08-03T00:47:36.403Z,48.22
2018-08-03T00:48:16.976Z,47.64
2018-08-03T00:48:57.537Z,47.26
2018-08-03T00:49:38.101Z,47.36
2018-08-03T00:50:18.678Z,47.45
2018-08-03T00:50:59.270Z,47.74
2018-08-03T00:51:39.874Z,47.55
2018-08-03T00:52:20.490Z,47.55
2018-08-03T00:53:01.062Z,47.64
2018-08-03T00:53:41.633Z,47.55
2018-08-03T00:54:22.325Z,48.22
2018-08-03T00:55:02.937Z,48.22
2018-08-03T00:55:43.615Z,48.61
2018-08-03T00:56:24.200Z,48.61
2018-08-03T00:57:04.854Z,49.39
2018-08-03T00:57:45.387Z,49.39
2018-08-03T00:58:25.958Z,48.61
2018-08-03T00:59:06.553Z,48.9
2018-08-03T00:59:47.155Z,49.68
2018-08-03T01:00:27.932Z,49.49
2018-08-03T01:01:08.508Z,49
2018-08-03T01:01:49.084Z,48.61
2018-08-03T01:02:29.655Z,48.71
2018-08-03T01:03:10.267Z,49
2018-08-03T01:03:51.076Z,49.49
2018-08-03T01:04:31.649Z,48.61
2018-08-03T01:05:12.211Z,47.84
2018-08-03T01:05:52.809Z,47.64
2018-08-03T01:06:33.391Z,48.22
2018-08-03T01:07:13.975Z,47.94
2018-08-03T01:07:54.574Z,48.22
2018-08-03T01:08:35.150Z,48.22
2018-08-03T01:09:15.780Z,47.94
2018-08-03T01:09:56.348Z,48.13
2018-08-03T01:10:36.928Z,48.81
2018-08-03T01:11:17.501Z,47.94
2018-08-03T01:11:58.073Z,48.13
2018-08-03T01:12:38.783Z,48.03
2018-08-03T01:13:19.358Z,48.22
2018-08-03T01:13:59.922Z,48.22
2018-08-03T01:14:40.552Z,48.71
2018-08-03T01:15:21.132Z,48.61
2018-08-03T01:16:01.697Z,48.81
2018-08-03T01:16:42.272Z,48.32
2018-08-03T01:17:22.830Z,48.9
2018-08-03T01:18:03.401Z,49.39
2018-08-03T01:18:43.969Z,49.49
2018-08-03T01:19:24.526Z,48.71
2018-08-03T01:20:05.086Z,48.71
2018-08-03T01:20:45.657Z,49.49
2018-08-03T01:21:26.209Z,48.9
2018-08-03T01:22:06.781Z,48.71
2018-08-03T01:22:47.346Z,48.52
2018-08-03T01:23:27.921Z,48.52
2018-08-03T01:24:08.492Z,47.84
2018-08-03T01:24:49.077Z,48.61
2018-08-03T01:25:29.634Z,48.81
2018-08-03T01:26:10.286Z,49.1
2018-08-03T01:26:50.846Z,49.58
2018-08-03T01:27:31.417Z,49.77
2018-08-03T01:28:12.007Z,49.68
2018-08-03T01:28:52.564Z,49.29
2018-08-03T01:29:33.189Z,48.61
2018-08-03T01:30:13.760Z,48.61
2018-08-03T01:30:54.338Z,48.61
2018-08-03T01:31:34.907Z,48.9
2018-08-03T01:32:15.475Z,49
2018-08-03T01:32:56.054Z,48.71
2018-08-03T01:33:36.612Z,49.29
2018-08-03T01:34:17.184Z,49.68
2018-08-03T01:34:57.757Z,49.77
2018-08-03T01:35:38.312Z,49.19
2018-08-03T01:36:18.870Z,49.39
2018-08-03T01:36:59.436Z,49.1
2018-08-03T01:37:40.008Z,49.39
2018-08-03T01:38:20.579Z,49.49
2018-08-03T01:39:01.148Z,49.29
2018-08-03T01:39:41.717Z,49.49
2018-08-03T01:40:22.278Z,49.68
2018-08-03T01:41:02.850Z,49.87
2018-08-03T01:41:43.423Z,49.68
2018-08-03T01:42:23.992Z,49.39
2018-08-03T01:43:04.549Z,49.39
2018-08-03T01:43:45.106Z,49.39
2018-08-03T01:44:25.681Z,49.29
2018-08-03T01:45:06.291Z,49
2018-08-03T01:45:46.856Z,49.1
2018-08-03T01:46:27.396Z,49.29
2018-08-03T01:47:07.972Z,48.61
2018-08-03T01:47:48.547Z,48.9
2018-08-03T01:48:29.144Z,48.81
2018-08-03T01:49:09.740Z,48.52
2018-08-03T01:49:50.349Z,48.81
2018-08-03T01:50:30.910Z,49.29
2018-08-03T01:51:11.473Z,49.39
2018-08-03T01:51:52.038Z,49
2018-08-03T01:52:32.593Z,48.71
2018-08-03T01:53:13.169Z,48.71
2018-08-03T01:53:53.747Z,48.61
2018-08-03T01:54:34.318Z,49.39
2018-08-03T01:55:14.890Z,49.19
2018-08-03T01:55:55.458Z,49.68
2018-08-03T01:56:36.042Z,49.49
2018-08-03T01:57:16.621Z,49.19
2018-08-03T01:57:57.207Z,48.9
2018-08-03T01:58:37.812Z,48.49
2018-08-03T01:59:18.377Z,49
2018-08-03T01:59:59.021Z,49.68
2018-08-03T02:00:39.586Z,49.58
2018-08-03T02:01:20.163Z,50.07
2018-08-03T02:02:00.716Z,50.26
2018-08-03T02:02:41.281Z,49.77
2018-08-03T02:03:21.928Z,49.87
2018-08-03T02:04:02.420Z,50.74
2018-08-03T02:04:42.994Z,50.65
2018-08-03T02:05:23.558Z,50.35
2018-08-03T02:06:04.127Z,49.68
2018-08-03T02:06:44.695Z,49.58
2018-08-03T02:07:25.276Z,50.16
2018-08-03T02:08:05.847Z,49.87
2018-08-03T02:08:46.415Z,49.29
2018-08-03T02:09:26.989Z,48.9
2018-08-03T02:10:07.579Z,48.32
2018-08-03T02:10:48.156Z,48.88
2018-08-03T02:11:28.749Z,49.37
2018-08-03T02:12:09.334Z,49.87
2018-08-03T02:12:49.909Z,49.39
2018-08-03T02:13:30.480Z,49.17
2018-08-03T02:14:11.043Z,49.87
2018-08-03T02:14:51.617Z,49.39
2018-08-03T02:15:32.205Z,48.59
2018-08-03T02:16:12.757Z,48.69
2018-08-03T02:16:53.323Z,49.37
2018-08-03T02:17:33.889Z,49.27
2018-08-03T02:18:14.455Z,48.97
2018-08-03T02:18:55.029Z,49.27
2018-08-03T02:19:35.592Z,49.65
2018-08-03T02:20:16.164Z,49.49
2018-08-03T02:20:56.740Z,48.79
2018-08-03T02:21:37.292Z,48.69
2018-08-03T02:22:17.861Z,49.46
2018-08-03T02:22:58.437Z,48.97
2018-08-03T02:23:39.003Z,48.97
2018-08-03T02:24:19.576Z,49.27
2018-08-03T02:25:00.157Z,49.37
2018-08-03T02:25:40.725Z,48.79
2018-08-03T02:26:21.307Z,48.97
2018-08-03T02:27:01.836Z,48.39
2018-08-03T02:27:42.406Z,48.59
2018-08-03T02:28:23.039Z,48.69
2018-08-03T02:29:03.664Z,48.97
2018-08-03T02:29:44.293Z,48.49
2018-08-03T02:30:24.859Z,48.3
2018-08-03T02:31:05.406Z,48.79
2018-08-03T02:31:45.983Z,48.2
2018-08-03T02:32:26.599Z,48.59
2018-08-03T02:33:07.171Z,49.27
2018-08-03T02:33:47.750Z,49.85
2018-08-03T02:34:28.326Z,49.46
2018-08-03T02:35:08.892Z,50.14
2018-08-03T02:35:49.470Z,50.04
2018-08-03T02:36:30.033Z,49.75
2018-08-03T02:37:10.609Z,50.24
2018-08-03T02:37:51.176Z,50.14
2018-08-03T02:38:31.757Z,49.75
2018-08-03T02:39:12.534Z,49.75
2018-08-03T02:39:53.096Z,48.49
2018-08-03T02:40:33.660Z,48.59
2018-08-03T02:41:14.226Z,47.81
2018-08-03T02:41:54.810Z,48.01
2018-08-03T02:42:35.353Z,47.72
2018-08-03T02:43:15.929Z,48.01
2018-08-03T02:43:56.488Z,48.3
2018-08-03T02:44:37.057Z,48.49
2018-08-03T02:45:17.625Z,48.59
2018-08-03T02:45:58.229Z,48.39
2018-08-03T02:46:38.826Z,48.2
2018-08-03T02:47:19.406Z,48.39
2018-08-03T02:47:59.959Z,48.59
2018-08-03T02:48:40.516Z,48.97
2018-08-03T02:49:21.107Z,48.49
2018-08-03T02:50:01.757Z,48.59
2018-08-03T02:50:42.296Z,48.69
2018-08-03T02:51:22.864Z,48.79
2018-08-03T02:52:03.438Z,48.59
2018-08-03T02:52:44.073Z,48.01
2018-08-03T02:53:24.613Z,48.01
2018-08-03T02:54:05.233Z,47.81
2018-08-03T02:54:45.867Z,47.91
2018-08-03T02:55:26.447Z,48.11
2018-08-03T02:56:07.169Z,47.81
2018-08-03T02:56:47.730Z,48.39
2018-08-03T02:57:28.303Z,47.81
2018-08-03T02:58:08.889Z,48.11
2018-08-03T02:58:49.452Z,47.91
2018-08-03T02:59:30.011Z,47.91
2018-08-03T03:00:10.596Z,48.01
2018-08-03T03:00:51.210Z,48.39
2018-08-03T03:01:31.762Z,47.91
2018-08-03T03:02:12.378Z,47.81
2018-08-03T03:02:52.948Z,48.01
2018-08-03T03:03:33.520Z,47.91
2018-08-03T03:04:14.089Z,48.01
2018-08-03T03:04:54.660Z,47.81
2018-08-03T03:05:35.235Z,47.81
2018-08-03T03:06:15.817Z,48.59
2018-08-03T03:06:56.384Z,48.69
2018-08-03T03:07:36.966Z,48.59
2018-08-03T03:08:17.563Z,47.81
2018-08-03T03:08:58.132Z,48.79
2018-08-03T03:09:38.691Z,47.81
2018-08-03T03:10:19.278Z,47.91
2018-08-03T03:10:59.848Z,48.01
2018-08-03T03:11:40.426Z,48.01
2018-08-03T03:12:20.991Z,47.91
2018-08-03T03:13:01.552Z,48.2
2018-08-03T03:13:42.118Z,47.81
2018-08-03T03:14:22.707Z,48.11
2018-08-03T03:15:03.304Z,47.91
2018-08-03T03:15:43.873Z,48.59
2018-08-03T03:16:24.451Z,48.69
2018-08-03T03:17:05.021Z,48.49
2018-08-03T03:17:45.658Z,48.01
2018-08-03T03:18:26.314Z,48.01
2018-08-03T03:19:06.946Z,47.99
2018-08-03T03:19:47.717Z,48.08
2018-08-03T03:20:28.482Z,47.79
2018-08-03T03:21:09.017Z,48.11
2018-08-03T03:21:49.657Z,47.89
2018-08-03T03:22:30.211Z,48.47
2018-08-03T03:23:10.795Z,48.47
2018-08-03T03:23:51.377Z,49.17
2018-08-03T03:24:32.043Z,48.79
2018-08-03T03:25:12.660Z,48.76
2018-08-03T03:25:53.248Z,48.76
2018-08-03T03:26:33.846Z,48.88
2018-08-03T03:27:14.448Z,49.17
2018-08-03T03:27:55.055Z,49.37
2018-08-03T03:28:35.664Z,49.46
2018-08-03T03:29:16.246Z,48.97
2018-08-03T03:29:56.953Z,49.54
2018-08-03T03:30:37.365Z,48.97
2018-08-03T03:31:17.936Z,49.34
2018-08-03T03:31:58.490Z,49.54
2018-08-03T03:32:39.141Z,49.82
2018-08-03T03:33:19.669Z,49.63
2018-08-03T03:34:00.201Z,49.75
2018-08-03T03:34:40.823Z,50.14
2018-08-03T03:35:21.566Z,49.95
2018-08-03T03:36:02.177Z,49.24
2018-08-03T03:36:42.827Z,49.17
2018-08-03T03:37:23.432Z,49.92
2018-08-03T03:38:04.080Z,49.05
2018-08-03T03:38:44.719Z,49.05
2018-08-03T03:39:25.278Z,49.46
2018-08-03T03:40:05.869Z,49.73
2018-08-03T03:40:46.561Z,49.75
2018-08-03T03:41:27.191Z,49.85
2018-08-03T03:42:07.772Z,50.62
2018-08-03T03:42:48.376Z,50.82
2018-08-03T03:43:28.954Z,50.52
2018-08-03T03:44:09.552Z,51.68
2018-08-03T03:44:50.113Z,51.5
2018-08-03T03:45:30.701Z,51.59
2018-08-03T03:46:11.301Z,51.78
2018-08-03T03:46:51.868Z,52.36
2018-08-03T03:47:32.441Z,52.36
2018-08-03T03:48:13.003Z,52.82
2018-08-03T03:48:53.556Z,52.95
2018-08-03T03:49:34.144Z,53.21
2018-08-03T03:50:14.719Z,52.92
2018-08-03T03:50:55.342Z,53.21
2018-08-03T03:51:35.883Z,53.41
2018-08-03T03:52:16.460Z,53.79
2018-08-03T03:52:57.012Z,53.99
2018-08-03T03:53:37.575Z,53.99
2018-08-03T03:54:18.141Z,54.66
2018-08-03T03:54:58.714Z,54.75
2018-08-03T03:55:39.291Z,55.24
2018-08-03T03:56:19.855Z,55.05
2018-08-03T03:57:00.435Z,55.43
2018-08-03T03:57:41.014Z,55.73
2018-08-03T03:58:21.585Z,55.79
2018-08-03T03:59:02.156Z,55.7
2018-08-03T03:59:42.752Z,55.79
2018-08-03T04:00:23.323Z,55.79
2018-08-03T04:01:03.891Z,55.6
2018-08-03T04:01:44.468Z,55.6
2018-08-03T04:02:25.023Z,55.6
2018-08-03T04:03:05.586Z,55.99
2018-08-03T04:03:46.205Z,56.37
2018-08-03T04:04:26.801Z,56.37
2018-08-03T04:05:07.384Z,56.28
2018-08-03T04:05:47.948Z,56.28
2018-08-03T04:06:28.508Z,56.47
2018-08-03T04:07:09.080Z,56.57
2018-08-03T04:07:49.652Z,56.18
2018-08-03T04:08:30.218Z,56.28
2018-08-03T04:09:10.777Z,55.6
2018-08-03T04:09:51.339Z,55.7
2018-08-03T04:10:31.916Z,56.18
2018-08-03T04:11:12.485Z,56.57
2018-08-03T04:11:53.057Z,56.67
2018-08-03T04:12:33.675Z,56.37
2018-08-03T04:13:14.279Z,55.79
2018-08-03T04:13:54.872Z,55.79
2018-08-03T04:14:35.429Z,55.7
2018-08-03T04:15:15.997Z,55.79
2018-08-03T04:15:56.556Z,55.79
2018-08-03T04:16:37.111Z,55.21
2018-08-03T04:17:17.680Z,55.31
2018-08-03T04:17:58.234Z,54.73
2018-08-03T04:18:38.797Z,54.83
2018-08-03T04:19:19.353Z,54.63
2018-08-03T04:19:59.914Z,54.93
2018-08-03T04:20:40.484Z,55.02
2018-08-03T04:21:21.046Z,54.63
2018-08-03T04:22:01.624Z,54.73
2018-08-03T04:22:42.197Z,54.83
2018-08-03T04:23:22.766Z,54.63
2018-08-03T04:24:03.342Z,54.63
2018-08-03T04:24:43.907Z,54.35
2018-08-03T04:25:24.513Z,53.77
2018-08-03T04:26:05.032Z,53.86
2018-08-03T04:26:45.596Z,54.53
2018-08-03T04:27:26.159Z,54.44
2018-08-03T04:28:06.719Z,54.35
2018-08-03T04:28:47.279Z,54.63
2018-08-03T04:29:27.870Z,54.05
2018-08-03T04:30:08.415Z,54.93
2018-08-03T04:30:48.977Z,55.02
2018-08-03T04:31:29.573Z,55.21
2018-08-03T04:32:10.261Z,55.21
2018-08-03T04:32:50.849Z,55.21
2018-08-03T04:33:31.439Z,54.93
2018-08-03T04:34:11.969Z,55.11
2018-08-03T04:34:52.551Z,55.31
2018-08-03T04:35:33.121Z,55.41
2018-08-03T04:36:13.707Z,55.21
2018-08-03T04:36:54.291Z,55.31
2018-08-03T04:37:34.950Z,55.51
2018-08-03T04:38:15.588Z,55.31
2018-08-03T04:38:56.184Z,54.93
2018-08-03T04:39:36.860Z,55.11
2018-08-03T04:40:17.442Z,54.63
2018-08-03T04:40:58.107Z,54.53
2018-08-03T04:41:38.815Z,54.25
2018-08-03T04:42:19.540Z,53.86
2018-08-03T04:43:00.123Z,54.66
2018-08-03T04:43:40.648Z,54.75
2018-08-03T04:44:21.345Z,54.63
2018-08-03T04:45:01.929Z,55.15
2018-08-03T04:45:42.537Z,55.24
2018-08-03T04:46:23.142Z,54.95
2018-08-03T04:47:03.836Z,55.15
2018-08-03T04:47:44.430Z,54.75
2018-08-03T04:48:25.062Z,55.15
2018-08-03T04:49:05.632Z,55.43
2018-08-03T04:49:46.200Z,54.85
2018-08-03T04:50:26.768Z,55.05
2018-08-03T04:51:07.346Z,54.95
2018-08-03T04:51:47.917Z,54.75
2018-08-03T04:52:28.501Z,55.15
2018-08-03T04:53:09.078Z,54.66
2018-08-03T04:53:49.602Z,55.24
2018-08-03T04:54:30.173Z,55.24
2018-08-03T04:55:10.745Z,54.85
2018-08-03T04:55:51.304Z,55.24
2018-08-03T04:56:31.879Z,55.34
2018-08-03T04:57:12.441Z,55.43
2018-08-03T04:57:53.003Z,55.82
2018-08-03T04:58:33.574Z,55.53
2018-08-03T04:59:14.144Z,55.53
2018-08-03T04:59:54.718Z,54.66
2018-08-03T05:00:35.293Z,54.08
2018-08-03T05:01:15.922Z,53.89
2018-08-03T05:01:56.491Z,53.79
2018-08-03T05:02:37.054Z,53.41
2018-08-03T05:03:17.606Z,53.41
2018-08-03T05:03:58.191Z,53.41
2018-08-03T05:04:38.770Z,53.11
2018-08-03T05:05:19.346Z,53.21
2018-08-03T05:05:59.922Z,53.31
2018-08-03T05:06:40.489Z,54.47
2018-08-03T05:07:21.114Z,53.79
2018-08-03T05:08:01.674Z,53.89
2018-08-03T05:08:42.271Z,54.27
2018-08-03T05:09:23.113Z,54.47
2018-08-03T05:10:03.680Z,54.57
2018-08-03T05:10:44.346Z,54.66
2018-08-03T05:11:24.924Z,54.49
2018-08-03T05:12:05.506Z,55.05
2018-08-03T05:12:46.109Z,54.11
2018-08-03T05:13:26.705Z,53.33
2018-08-03T05:14:07.292Z,53.33
2018-08-03T05:14:47.873Z,53.72
2018-08-03T05:15:28.458Z,53.04
2018-08-03T05:16:08.993Z,52.95
2018-08-03T05:16:49.612Z,53.14
2018-08-03T05:17:30.177Z,54.01
2018-08-03T05:18:10.731Z,53.33
2018-08-03T05:18:51.325Z,53.53
2018-08-03T05:19:31.973Z,53.63
2018-08-03T05:20:12.614Z,53.72
2018-08-03T05:20:53.249Z,53.04
2018-08-03T05:21:34.054Z,51.98
2018-08-03T05:22:14.706Z,52.56
2018-08-03T05:22:55.306Z,53.04
2018-08-03T05:23:35.924Z,52.85
2018-08-03T05:24:16.560Z,53.04
2018-08-03T05:24:57.088Z,53.23
2018-08-03T05:25:37.645Z,52.75
2018-08-03T05:26:18.224Z,53.33
2018-08-03T05:26:58.780Z,53.33
2018-08-03T05:27:39.345Z,53.14
2018-08-03T05:28:19.926Z,52.95
2018-08-03T05:29:00.497Z,52.27
2018-08-03T05:29:41.040Z,52.56
2018-08-03T05:30:21.666Z,52.75
2018-08-03T05:31:02.189Z,52.66
2018-08-03T05:31:42.764Z,53.04
2018-08-03T05:32:23.325Z,52.08
2018-08-03T05:33:03.900Z,52.36
2018-08-03T05:33:44.474Z,52.27
2018-08-03T05:34:25.038Z,52.56
2018-08-03T05:35:05.620Z,52.75
2018-08-03T05:35:46.195Z,52.56
2018-08-03T05:36:26.763Z,52.27
2018-08-03T05:37:07.332Z,52.66
2018-08-03T05:37:47.889Z,52.95
2018-08-03T05:38:28.454Z,52.56
2018-08-03T05:39:09.021Z,52.46
2018-08-03T05:39:49.594Z,51.3
2018-08-03T05:40:30.243Z,51.68
2018-08-03T05:41:10.843Z,51.98
2018-08-03T05:41:51.522Z,52.46
2018-08-03T05:42:32.215Z,52.85
2018-08-03T05:43:12.685Z,52.66
2018-08-03T05:43:53.265Z,52.78
2018-08-03T05:44:33.817Z,53.04
2018-08-03T05:45:14.392Z,52.68
2018-08-03T05:45:54.934Z,52.97
2018-08-03T05:46:35.518Z,52.68
2018-08-03T05:47:16.077Z,52.49
2018-08-03T05:47:56.652Z,52.58
2018-08-03T05:48:37.216Z,53.65
2018-08-03T05:49:17.830Z,53.49
2018-08-03T05:49:58.406Z,53.17
2018-08-03T05:50:38.960Z,52.8
2018-08-03T05:51:19.530Z,52.42
2018-08-03T05:52:00.138Z,52.42
2018-08-03T05:52:40.710Z,52.54
2018-08-03T05:53:21.290Z,51.76
2018-08-03T05:54:01.867Z,50.79
2018-08-03T05:54:42.436Z,50.31
2018-08-03T05:55:23.022Z,50.21
2018-08-03T05:56:03.597Z,49.82
2018-08-03T05:56:44.170Z,48.85
2018-08-03T05:57:24.722Z,48.39
2018-08-03T05:58:05.318Z,48.88
2018-08-03T05:58:45.848Z,48.69
2018-08-03T05:59:26.415Z,48.88
2018-08-03T06:00:06.985Z,48.69
2018-08-03T06:00:47.566Z,49.56
2018-08-03T06:01:28.124Z,47.62
2018-08-03T06:02:08.743Z,47.03
2018-08-03T06:02:49.313Z,47.23
2018-08-03T06:03:29.891Z,47.52
2018-08-03T06:04:10.457Z,47.4
2018-08-03T06:04:51.016Z,47.3
2018-08-03T06:05:31.582Z,47.5
2018-08-03T06:06:12.153Z,47.02
2018-08-03T06:06:52.714Z,47.11
2018-08-03T06:07:33.314Z,47.3
2018-08-03T06:08:13.988Z,47.11
2018-08-03T06:08:54.470Z,47.6
2018-08-03T06:09:35.225Z,48.27
2018-08-03T06:10:15.778Z,47.98
2018-08-03T06:10:56.328Z,48.06
2018-08-03T06:11:36.911Z,47.96
2018-08-03T06:12:17.473Z,48.08
2018-08-03T06:12:58.040Z,47.98
2018-08-03T06:13:38.596Z,48.27
2018-08-03T06:14:19.173Z,47.96
2018-08-03T06:14:59.787Z,47.47
2018-08-03T06:15:40.488Z,47.98
2018-08-03T06:16:21.044Z,48.85
2018-08-03T06:17:01.640Z,49.05
2018-08-03T06:17:42.215Z,48.66
2018-08-03T06:18:22.927Z,48.27
2018-08-03T06:19:03.991Z,48.57
2018-08-03T06:19:44.709Z,48.47
2018-08-03T06:20:25.286Z,48.66
2018-08-03T06:21:05.934Z,48.08
2018-08-03T06:21:46.534Z,48.1
2018-08-03T06:22:27.106Z,48.69
2018-08-03T06:23:07.674Z,48.39
2018-08-03T06:23:48.264Z,47.55
2018-08-03T06:24:29.343Z,46.38
2018-08-03T06:25:09.862Z,46.19
2018-08-03T06:25:50.426Z,46.31
2018-08-03T06:26:30.991Z,46.41
2018-08-03T06:27:11.635Z,46.52
2018-08-03T06:27:52.323Z,46.81
2018-08-03T06:28:33.121Z,46.23
2018-08-03T06:29:13.690Z,44.78
2018-08-03T06:29:54.271Z,43.71
2018-08-03T06:30:34.841Z,44.21
2018-08-03T06:31:15.469Z,44.51
2018-08-03T06:31:56.101Z,44.31
2018-08-03T06:32:39.024Z,43.82
2018-08-03T06:33:20.158Z,44.02
2018-08-03T06:34:01.224Z,43.73
2018-08-03T06:34:43.073Z,44.12
2018-08-03T06:35:24.500Z,43.73
2018-08-03T06:36:06.267Z,43.26
2018-08-03T06:36:48.519Z,42.97
2018-08-03T06:37:30.487Z,44.43
2018-08-03T06:38:11.565Z,44.33
2018-08-03T06:38:54.367Z,43.75
2018-08-03T06:39:35.828Z,44.62
2018-08-03T06:40:18.038Z,44.53
2018-08-03T06:41:00.625Z,44.43
2018-08-03T06:41:41.842Z,43.55
2018-08-03T06:42:23.677Z,43.26
2018-08-03T06:43:04.529Z,43.75
2018-08-03T06:43:46.596Z,44.43
2018-08-03T06:44:29.231Z,42.87
2018-08-03T06:45:11.149Z,42.19
2018-08-03T06:45:53.136Z,42.78
2018-08-03T06:46:34.995Z,42.87
2018-08-03T06:47:16.925Z,42.78
2018-08-03T06:47:58.808Z,42.97
2018-08-03T06:48:40.044Z,42
2018-08-03T06:49:21.320Z,42.58
2018-08-03T06:50:02.630Z,42
2018-08-03T06:50:46.271Z,42.99
2018-08-03T06:51:27.502Z,43.19
2018-08-03T06:52:09.784Z,43.67
2018-08-03T06:52:51.163Z,43.67
2018-08-03T06:53:32.630Z,41.44
2018-08-03T06:54:14.045Z,41.34
2018-08-03T06:54:56.488Z,41.63
2018-08-03T06:55:40.284Z,41.75
2018-08-03T06:56:22.492Z,42.24
2018-08-03T06:57:04.430Z,43.79
2018-08-03T06:57:45.743Z,44.67
2018-08-03T06:58:27.819Z,44.09
2018-08-03T06:59:09.164Z,42.94
2018-08-03T06:59:50.895Z,41.67
2018-08-03T07:00:32.260Z,41.57
2018-08-03T07:01:15.186Z,41.48
2018-08-03T07:01:57.366Z,42.55
2018-08-03T07:02:40.237Z,41.48
2018-08-03T07:03:23.526Z,41.38
2018-08-03T07:04:04.659Z,42.45
2018-08-03T07:04:45.923Z,43.04
2018-08-03T07:05:27.804Z,43.84
2018-08-03T07:06:09.788Z,40.72
2018-08-03T07:06:51.038Z,40.23
2018-08-03T07:07:32.499Z,40.72
2018-08-03T07:08:13.821Z,41.4
2018-08-03T07:08:55.886Z,40.81
2018-08-03T07:09:37.147Z,41.6
2018-08-03T07:10:19.944Z,42.08
2018-08-03T07:11:05.012Z,41.91
2018-08-03T07:11:47.067Z,41.22
2018-08-03T07:12:28.357Z,40.25
2018-08-03T07:13:09.541Z,39.37
2018-08-03T07:13:52.002Z,39.08
2018-08-03T07:14:33.953Z,37.81
2018-08-03T07:15:16.022Z,38.69
2018-08-03T07:15:57.187Z,38.4
2018-08-03T07:16:39.025Z,38.3
2018-08-03T07:17:20.219Z,40.06
2018-08-03T07:18:01.975Z,40.35
2018-08-03T07:18:43.598Z,41.22
2018-08-03T07:19:25.509Z,40.47
2018-08-03T07:20:06.673Z,38.2
2018-08-03T07:20:47.805Z,38.51
2018-08-03T07:21:29.067Z,39.29
2018-08-03T07:22:10.422Z,38.51
2018-08-03T07:22:53.530Z,36.76
2018-08-03T07:23:35.366Z,36.37
2018-08-03T07:24:16.525Z,37.05
2018-08-03T07:24:57.745Z,37.52
2018-08-03T07:25:39.180Z,39.1
2018-08-03T07:26:20.172Z,38.12
2018-08-03T07:27:02.514Z,37.63
2018-08-03T07:27:43.942Z,39.1
2018-08-03T07:28:28.312Z,39.1
2018-08-03T07:29:09.616Z,37.63
2018-08-03T07:29:50.822Z,36.66
2018-08-03T07:30:33.616Z,36.66
2018-08-03T07:31:14.984Z,36.78
2018-08-03T07:31:56.147Z,37.55
2018-08-03T07:32:37.429Z,36.68
2018-08-03T07:33:19.925Z,35.12
2018-08-03T07:34:01.744Z,35.22
2018-08-03T07:34:43.640Z,35.39
2018-08-03T07:35:25.015Z,35.9
2018-08-03T07:36:06.058Z,36.47
2018-08-03T07:36:47.296Z,36.49
2018-08-03T07:37:29.246Z,37.65
2018-08-03T07:38:10.531Z,37.75
2018-08-03T07:38:51.138Z,36.58
2018-08-03T07:39:31.706Z,35.9
2018-08-03T07:40:12.298Z,35.71
2018-08-03T07:40:52.933Z,35.51
2018-08-03T07:41:33.517Z,35.02
2018-08-03T07:42:14.090Z,35.22
2018-08-03T07:42:54.782Z,36
2018-08-03T07:43:35.384Z,35.51
2018-08-03T07:44:15.932Z,34.73
2018-08-03T07:44:56.572Z,34.73
2018-08-03T07:45:37.092Z,35.63
2018-08-03T07:46:17.705Z,37.67
2018-08-03T07:46:58.308Z,36.6
2018-08-03T07:47:38.880Z,36.51
2018-08-03T07:48:19.461Z,35.72
2018-08-03T07:49:00.044Z,36.8
2018-08-03T07:49:40.606Z,35.25
2018-08-03T07:50:21.186Z,34.77
2018-08-03T07:51:01.773Z,35.24
2018-08-03T07:51:42.386Z,35.24
2018-08-03T07:52:22.990Z,35.04
2018-08-03T07:53:03.578Z,36.43
2018-08-03T07:53:44.194Z,36.23
2018-08-03T07:54:24.877Z,36.72
2018-08-03T07:55:05.521Z,35.94
2018-08-03T07:56:53.049Z,34.86
2018-08-03T07:57:33.650Z,34.96
2018-08-03T07:58:14.276Z,36.72
2018-08-03T07:58:54.873Z,35.63
2018-08-03T07:59:35.497Z,35.24
2018-08-03T08:00:16.062Z,35.82
2018-08-03T08:00:56.637Z,36.51
2018-08-03T08:01:37.199Z,36.99
2018-08-03T08:02:17.904Z,35.43
2018-08-03T08:02:58.501Z,35.92
2018-08-03T08:03:39.096Z,36.04
2018-08-03T08:04:19.660Z,36.72
2018-08-03T08:05:00.246Z,35.94
2018-08-03T08:05:40.971Z,36.72
2018-08-03T08:06:21.655Z,36.33
2018-08-03T08:07:02.149Z,35.74
2018-08-03T08:07:42.731Z,34.77
2018-08-03T08:08:23.335Z,35.84
2018-08-03T08:09:03.938Z,35.16
2018-08-03T08:09:44.615Z,35.25
2018-08-03T08:10:25.099Z,35.35
2018-08-03T08:11:05.686Z,35.45
2018-08-03T08:11:46.285Z,35.06
2018-08-03T08:12:26.859Z,34.96
2018-08-03T08:13:07.440Z,34.08
2018-08-03T08:13:48.017Z,34.77
2018-08-03T08:14:28.590Z,35.94
2018-08-03T08:15:09.217Z,36.72
2018-08-03T08:15:49.761Z,35.06
2018-08-03T08:16:30.777Z,35.74
2018-08-03T08:17:11.956Z,35.84
2018-08-03T08:17:55.297Z,35.84
2018-08-03T08:18:37.463Z,35.25
2018-08-03T08:19:20.198Z,34.57
2018-08-03T08:20:02.090Z,35.45
2018-08-03T08:20:46.391Z,35.64
2018-08-03T08:21:27.589Z,36.13
2018-08-03T08:22:10.408Z,36.62
2018-08-03T08:22:51.699Z,34.38
2018-08-03T08:23:32.851Z,35.06
2018-08-03T08:24:14.013Z,35.84
2018-08-03T08:24:55.884Z,35.25
2018-08-03T08:25:37.079Z,34.38
2018-08-03T08:26:21.415Z,34.47
2018-08-03T08:27:02.562Z,35.25
2018-08-03T08:27:44.987Z,35.06
2018-08-03T08:28:26.308Z,35.06
2018-08-03T08:29:08.892Z,36.62
2018-08-03T08:29:50.027Z,36.23
2018-08-03T08:30:33.653Z,35.84
2018-08-03T08:31:14.733Z,35.74
2018-08-03T08:31:56.611Z,35.35
2018-08-03T08:32:38.052Z,36.13
2018-08-03T08:33:21.384Z,35.06
2018-08-03T08:34:02.856Z,33.89
2018-08-03T08:34:47.416Z,34.86
2018-08-03T08:35:28.735Z,36.52
2018-08-03T08:36:10.051Z,36.43
2018-08-03T08:36:51.933Z,35.35
2018-08-03T08:37:33.902Z,35.74
2018-08-03T08:38:15.238Z,35.94
2018-08-03T08:38:57.096Z,35.84
2018-08-03T08:39:41.386Z,36.04
2018-08-03T08:40:22.541Z,37.62
2018-08-03T08:41:03.904Z,37.32
2018-08-03T08:41:45.254Z,35.07
2018-08-03T08:42:27.953Z,35.07
2018-08-03T08:43:09.093Z,35.07
2018-08-03T08:43:50.326Z,35.36
2018-08-03T08:44:31.439Z,35.07
2018-08-03T08:45:13.320Z,34
2018-08-03T08:45:56.482Z,33.7
2018-08-03T08:46:39.258Z,34.88
2018-08-03T08:47:21.426Z,34.19
2018-08-03T08:48:04.267Z,33.69
2018-08-03T08:48:46.112Z,34.88